Siauliai, Lithuania

4:06 PM EEST on September 01, 2014 (GMT +0300)
Siauliai International | Change Station
CLOSE
Current Station
Airport
Location: Siauliai,
Elevation: 443 ft
Nearby Weather Stations

Elev 443 ft 55.89 °N, 23.40 °E | Updated 16 minutes ago

Scattered Clouds
Scattered Clouds
61 °F
Feels Like 61 °F
N
8
Wind Variable Wind from ENE

Today
High -- | Low -- °F
--% Chance of Precip.
Yesterday
High -- | Low -- °F
Precip. -- in
6:30 AM 8:21 PM
Waxing Crescent, 40% visible
Pressure 30.12 in
Visibility 6.2 miles
Clouds Scattered Clouds 3700 ft
Dew Point 46 °F
Humidity 59%
Rainfall 0.00 in
Snow Depth Not available.
UV 4 out of 12
Pollen Not available.
Air Quality Not available.
Flu Activity Not available.
METAR EYSA 011250Z 06007KT 030V090 9999 SCT037 16/08 Q1020

More Conditions Fewer Conditions

Pressure 30.12 in
Visibility 6.2 miles
Clouds Scattered Clouds 3700 ft
Dew Point 46 °F
Humidity 59%
Rainfall 0.00 in
Snow Depth Not available.
UV 4 out of 12
Pollen Not available.
Air Quality Not available.
Flu Activity Not available.
METAR EYSA 011250Z 06007KT 030V090 9999 SCT037 16/08 Q1020

More Conditions Fewer Conditions

10-Day Weather Forecast

Almanac

Astronomy

Sep. 01, 2014 Rise Set
Actual Time 6:30 AM EEST 8:21 PM EEST
Civil Twilight 5:51 AM EEST 9:00 PM EEST
Nautical Twilight 5:01 AM EEST 9:49 PM EEST
Astronomical Twilight 4:03 AM EEST 10:47 PM EEST
Moon 2:09 PM EEST 10:54 PM EEST
Length of Visible Light 15h 09m
Length of Day
13h 50m
Tomorrow will be 4m 31s shorter.
Waxing Crescent, 40% of the Moon is Illuminated
Today
Waxing Crescent
Sep 2
First Quarter
Sep 8
Full
Sep 15
Last Quarter
Sep 24
New

Yesterday's Extremes

Country Highs Country Lows

Community

WunderPhotos

Upload Photos

1,749,203 photos uploaded!

Nearby

Snow Depth

Not available.

Earthquake Activity

City Distance Mag. Time & Date
No recent earthquake activity has been reported nearby.
Minimum magnitude displayed is 2.5.

Coastal Water Temperatures

Place Temperature
No Stations Reporting

Nearby Weather Stations